sensor_id;sensor_type;location;lat;lon;timestamp;P1;durP1;ratioP1;P2;durP2;ratioP2
47894;SDS011;33653;52.302;8.134;2023-10-31T00:01:01;7.53;;;4.80;;
47894;SDS011;33653;52.302;8.134;2023-10-31T00:03:31;6.65;;;4.57;;
47894;SDS011;33653;52.302;8.134;2023-10-31T00:06:02;6.55;;;4.57;;
47894;SDS011;33653;52.302;8.134;2023-10-31T00:11:53;6.40;;;4.80;;
47894;SDS011;33653;52.302;8.134;2023-10-31T00:14:21;7.13;;;4.47;;
47894;SDS011;33653;52.302;8.134;2023-10-31T00:17:06;9.02;;;5.82;;
47894;SDS011;33653;52.302;8.134;2023-10-31T00:22:34;7.32;;;4.78;;
47894;SDS011;33653;52.302;8.134;2023-10-31T00:25:08;6.10;;;4.22;;
47894;SDS011;33653;52.302;8.134;2023-10-31T00:27:37;7.07;;;5.18;;
47894;SDS011;33653;52.302;8.134;2023-10-31T00:30:06;7.15;;;4.40;;
47894;SDS011;33653;52.302;8.134;2023-10-31T00:32:38;6.32;;;4.47;;
47894;SDS011;33653;52.302;8.134;2023-10-31T00:35:07;5.63;;;4.25;;
47894;SDS011;33653;52.302;8.134;2023-10-31T00:37:38;7.68;;;4.47;;
47894;SDS011;33653;52.302;8.134;2023-10-31T00:40:16;8.27;;;5.20;;
47894;SDS011;33653;52.302;8.134;2023-10-31T00:42:45;9.75;;;5.60;;
47894;SDS011;33653;52.302;8.134;2023-10-31T00:45:16;9.75;;;6.30;;
47894;SDS011;33653;52.302;8.134;2023-10-31T00:47:47;11.57;;;6.68;;
47894;SDS011;33653;52.302;8.134;2023-10-31T00:50:19;12.32;;;6.60;;
47894;SDS011;33653;52.302;8.134;2023-10-31T00:52:55;12.57;;;6.80;;
47894;SDS011;33653;52.302;8.134;2023-10-31T00:55:35;11.27;;;6.20;;
47894;SDS011;33653;52.302;8.134;2023-10-31T00:58:14;10.07;;;5.13;;
47894;SDS011;33653;52.302;8.134;2023-10-31T01:00:45;8.70;;;5.85;;
47894;SDS011;33653;52.302;8.134;2023-10-31T01:03:13;15.45;;;5.70;;
47894;SDS011;33653;52.302;8.134;2023-10-31T01:05:47;8.80;;;5.10;;
47894;SDS011;33653;52.302;8.134;2023-10-31T01:08:15;10.10;;;6.28;;
47894;SDS011;33653;52.302;8.134;2023-10-31T01:10:44;7.30;;;5.03;;
47894;SDS011;33653;52.302;8.134;2023-10-31T01:13:17;7.25;;;5.05;;
47894;SDS011;33653;52.302;8.134;2023-10-31T01:15:46;10.88;;;5.88;;
47894;SDS011;33653;52.302;8.134;2023-10-31T01:18:24;9.68;;;5.68;;
47894;SDS011;33653;52.302;8.134;2023-10-31T01:21:01;12.15;;;5.32;;
47894;SDS011;33653;52.302;8.134;2023-10-31T01:23:36;8.52;;;5.90;;
47894;SDS011;33653;52.302;8.134;2023-10-31T01:26:13;12.05;;;6.28;;
47894;SDS011;33653;52.302;8.134;2023-10-31T01:28:46;13.60;;;5.55;;
47894;SDS011;33653;52.302;8.134;2023-10-31T01:31:22;11.13;;;6.57;;
47894;SDS011;33653;52.302;8.134;2023-10-31T01:33:51;9.35;;;5.72;;
47894;SDS011;33653;52.302;8.134;2023-10-31T01:36:26;8.57;;;6.38;;
47894;SDS011;33653;52.302;8.134;2023-10-31T01:39:09;8.63;;;5.65;;
47894;SDS011;33653;52.302;8.134;2023-10-31T01:41:39;11.27;;;5.57;;
47894;SDS011;33653;52.302;8.134;2023-10-31T01:44:24;8.18;;;5.57;;
47894;SDS011;33653;52.302;8.134;2023-10-31T01:49:49;6.82;;;4.65;;
47894;SDS011;33653;52.302;8.134;2023-10-31T01:52:20;5.50;;;4.45;;
47894;SDS011;33653;52.302;8.134;2023-10-31T01:54:49;8.38;;;4.40;;
47894;SDS011;33653;52.302;8.134;2023-10-31T01:57:23;7.15;;;4.60;;
47894;SDS011;33653;52.302;8.134;2023-10-31T02:02:23;6.93;;;4.55;;
47894;SDS011;33653;52.302;8.134;2023-10-31T02:04:57;5.03;;;4.45;;
47894;SDS011;33653;52.302;8.134;2023-10-31T02:07:26;5.80;;;4.43;;
47894;SDS011;33653;52.302;8.134;2023-10-31T02:12:49;4.00;;;3.45;;
47894;SDS011;33653;52.302;8.134;2023-10-31T02:15:18;4.82;;;3.35;;
47894;SDS011;33653;52.302;8.134;2023-10-31T02:17:50;5.63;;;2.63;;
47894;SDS011;33653;52.302;8.134;2023-10-31T02:20:21;3.60;;;2.85;;
47894;SDS011;33653;52.302;8.134;2023-10-31T02:22:50;3.25;;;2.70;;
47894;SDS011;33653;52.302;8.134;2023-10-31T02:25:24;4.72;;;3.55;;
47894;SDS011;33653;52.302;8.134;2023-10-31T02:27:52;4.93;;;3.42;;
47894;SDS011;33653;52.302;8.134;2023-10-31T02:30:27;4.50;;;3.10;;
47894;SDS011;33653;52.302;8.134;2023-10-31T02:32:55;5.18;;;4.15;;
47894;SDS011;33653;52.302;8.134;2023-10-31T02:35:32;6.38;;;3.90;;
47894;SDS011;33653;52.302;8.134;2023-10-31T02:38:16;4.45;;;3.72;;
47894;SDS011;33653;52.302;8.134;2023-10-31T02:41:00;5.45;;;4.13;;
47894;SDS011;33653;52.302;8.134;2023-10-31T02:43:41;5.82;;;4.40;;
47894;SDS011;33653;52.302;8.134;2023-10-31T02:46:18;4.22;;;3.63;;
47894;SDS011;33653;52.302;8.134;2023-10-31T02:48:49;3.67;;;2.83;;
47894;SDS011;33653;52.302;8.134;2023-10-31T02:53:48;3.08;;;1.92;;
47894;SDS011;33653;52.302;8.134;2023-10-31T02:56:16;5.05;;;2.35;;
47894;SDS011;33653;52.302;8.134;2023-10-31T02:58:51;3.58;;;2.65;;
47894;SDS011;33653;52.302;8.134;2023-10-31T03:01:29;1.95;;;1.58;;
47894;SDS011;33653;52.302;8.134;2023-10-31T03:06:56;1.52;;;1.42;;
47894;SDS011;33653;52.302;8.134;2023-10-31T03:09:25;2.15;;;1.65;;
47894;SDS011;33653;52.302;8.134;2023-10-31T03:12:09;1.92;;;1.73;;
47894;SDS011;33653;52.302;8.134;2023-10-31T03:14:47;2.13;;;1.77;;
47894;SDS011;33653;52.302;8.134;2023-10-31T03:17:18;1.98;;;1.77;;
47894;SDS011;33653;52.302;8.134;2023-10-31T03:19:58;1.40;;;1.30;;
47894;SDS011;33653;52.302;8.134;2023-10-31T03:22:27;0.80;;;0.80;;
47894;SDS011;33653;52.302;8.134;2023-10-31T03:24:58;4.57;;;0.90;;
47894;SDS011;33653;52.302;8.134;2023-10-31T03:30:47;0.63;;;0.63;;
47894;SDS011;33653;52.302;8.134;2023-10-31T03:33:33;0.60;;;0.60;;
47894;SDS011;33653;52.302;8.134;2023-10-31T03:36:02;0.50;;;0.50;;
47894;SDS011;33653;52.302;8.134;2023-10-31T03:38:34;0.50;;;0.50;;
47894;SDS011;33653;52.302;8.134;2023-10-31T03:41:19;0.40;;;0.40;;
47894;SDS011;33653;52.302;8.134;2023-10-31T03:43:52;0.65;;;0.65;;
47894;SDS011;33653;52.302;8.134;2023-10-31T03:46:29;1.33;;;0.85;;
47894;SDS011;33653;52.302;8.134;2023-10-31T03:52:08;0.50;;;0.50;;
47894;SDS011;33653;52.302;8.134;2023-10-31T03:57:09;0.60;;;0.60;;
47894;SDS011;33653;52.302;8.134;2023-10-31T03:59:38;0.63;;;0.63;;
47894;SDS011;33653;52.302;8.134;2023-10-31T04:02:06;1.88;;;0.68;;
47894;SDS011;33653;52.302;8.134;2023-10-31T04:08:42;0.50;;;0.50;;
47894;SDS011;33653;52.302;8.134;2023-10-31T04:11:11;1.85;;;1.52;;
47894;SDS011;33653;52.302;8.134;2023-10-31T04:13:51;0.60;;;0.60;;
47894;SDS011;33653;52.302;8.134;2023-10-31T04:16:22;1.38;;;0.70;;
47894;SDS011;33653;52.302;8.134;2023-10-31T04:19:27;0.80;;;0.80;;
47894;SDS011;33653;52.302;8.134;2023-10-31T04:21:57;0.60;;;0.60;;
47894;SDS011;33653;52.302;8.134;2023-10-31T04:24:25;0.75;;;0.75;;
47894;SDS011;33653;52.302;8.134;2023-10-31T04:27:08;0.77;;;0.77;;
47894;SDS011;33653;52.302;8.134;2023-10-31T04:29:40;0.60;;;0.60;;
47894;SDS011;33653;52.302;8.134;2023-10-31T04:32:22;1.08;;;0.77;;
47894;SDS011;33653;52.302;8.134;2023-10-31T04:34:53;0.60;;;0.60;;
47894;SDS011;33653;52.302;8.134;2023-10-31T04:37:27;3.92;;;1.13;;
47894;SDS011;33653;52.302;8.134;2023-10-31T04:40:07;0.70;;;0.70;;
47894;SDS011;33653;52.302;8.134;2023-10-31T04:42:52;0.98;;;0.95;;
47894;SDS011;33653;52.302;8.134;2023-10-31T04:45:34;0.95;;;0.88;;
47894;SDS011;33653;52.302;8.134;2023-10-31T04:48:23;5.50;;;1.33;;
47894;SDS011;33653;52.302;8.134;2023-10-31T04:50:58;1.92;;;1.50;;
47894;SDS011;33653;52.302;8.134;2023-10-31T04:53:29;1.63;;;1.40;;
47894;SDS011;33653;52.302;8.134;2023-10-31T04:56:14;7.03;;;1.88;;
47894;SDS011;33653;52.302;8.134;2023-10-31T04:58:47;2.83;;;1.67;;
47894;SDS011;33653;52.302;8.134;2023-10-31T05:01:16;3.42;;;2.70;;
47894;SDS011;33653;52.302;8.134;2023-10-31T05:03:54;3.15;;;1.88;;
47894;SDS011;33653;52.302;8.134;2023-10-31T05:06:39;3.63;;;2.50;;
47894;SDS011;33653;52.302;8.134;2023-10-31T05:09:11;3.30;;;2.38;;
47894;SDS011;33653;52.302;8.134;2023-10-31T05:11:51;1.90;;;1.73;;
47894;SDS011;33653;52.302;8.134;2023-10-31T05:17:28;5.85;;;2.85;;
47894;SDS011;33653;52.302;8.134;2023-10-31T05:19:58;7.72;;;2.72;;
47894;SDS011;33653;52.302;8.134;2023-10-31T05:22:26;3.30;;;2.60;;
47894;SDS011;33653;52.302;8.134;2023-10-31T05:25:15;4.57;;;2.40;;
47894;SDS011;33653;52.302;8.134;2023-10-31T05:30:46;8.77;;;2.45;;
47894;SDS011;33653;52.302;8.134;2023-10-31T05:33:20;6.72;;;3.20;;
47894;SDS011;33653;52.302;8.134;2023-10-31T05:35:50;7.72;;;3.03;;
47894;SDS011;33653;52.302;8.134;2023-10-31T05:38:22;5.43;;;3.47;;
47894;SDS011;33653;52.302;8.134;2023-10-31T05:40:50;5.15;;;3.40;;
47894;SDS011;33653;52.302;8.134;2023-10-31T05:43:23;6.80;;;3.55;;
47894;SDS011;33653;52.302;8.134;2023-10-31T05:46:01;5.35;;;3.63;;
47894;SDS011;33653;52.302;8.134;2023-10-31T05:51:55;6.63;;;2.95;;
47894;SDS011;33653;52.302;8.134;2023-10-31T05:54:30;6.75;;;4.10;;
47894;SDS011;33653;52.302;8.134;2023-10-31T05:59:57;7.68;;;2.85;;
47894;SDS011;33653;52.302;8.134;2023-10-31T06:02:38;3.65;;;2.45;;
47894;SDS011;33653;52.302;8.134;2023-10-31T06:05:06;5.22;;;2.55;;
47894;SDS011;33653;52.302;8.134;2023-10-31T06:07:36;3.40;;;2.58;;
47894;SDS011;33653;52.302;8.134;2023-10-31T06:10:19;4.63;;;2.90;;
47894;SDS011;33653;52.302;8.134;2023-10-31T06:12:48;6.10;;;2.95;;
47894;SDS011;33653;52.302;8.134;2023-10-31T06:15:30;6.25;;;2.75;;
47894;SDS011;33653;52.302;8.134;2023-10-31T06:18:03;4.03;;;2.55;;
47894;SDS011;33653;52.302;8.134;2023-10-31T06:20:34;2.95;;;2.10;;
47894;SDS011;33653;52.302;8.134;2023-10-31T06:23:07;4.47;;;2.97;;
47894;SDS011;33653;52.302;8.134;2023-10-31T06:28:25;2.25;;;1.77;;
47894;SDS011;33653;52.302;8.134;2023-10-31T06:31:02;3.00;;;1.95;;
47894;SDS011;33653;52.302;8.134;2023-10-31T06:33:30;6.75;;;2.30;;
47894;SDS011;33653;52.302;8.134;2023-10-31T06:36:44;3.38;;;2.25;;
47894;SDS011;33653;52.302;8.134;2023-10-31T06:39:15;4.78;;;2.15;;
47894;SDS011;33653;52.302;8.134;2023-10-31T06:45:13;4.13;;;2.47;;
47894;SDS011;33653;52.302;8.134;2023-10-31T06:47:41;4.05;;;1.73;;
47894;SDS011;33653;52.302;8.134;2023-10-31T06:50:17;2.45;;;2.05;;
47894;SDS011;33653;52.302;8.134;2023-10-31T06:52:53;2.58;;;2.08;;
47894;SDS011;33653;52.302;8.134;2023-10-31T06:55:33;3.83;;;2.88;;
47894;SDS011;33653;52.302;8.134;2023-10-31T06:58:04;3.47;;;2.28;;
47894;SDS011;33653;52.302;8.134;2023-10-31T07:04:05;4.53;;;2.28;;
47894;SDS011;33653;52.302;8.134;2023-10-31T07:06:37;3.17;;;2.65;;
47894;SDS011;33653;52.302;8.134;2023-10-31T07:09:15;2.70;;;2.28;;
47894;SDS011;33653;52.302;8.134;2023-10-31T07:14:50;3.10;;;1.95;;
47894;SDS011;33653;52.302;8.134;2023-10-31T07:17:22;3.75;;;2.42;;
47894;SDS011;33653;52.302;8.134;2023-10-31T07:19:50;3.47;;;2.38;;
47894;SDS011;33653;52.302;8.134;2023-10-31T07:22:19;2.72;;;1.83;;
47894;SDS011;33653;52.302;8.134;2023-10-31T07:24:53;4.07;;;1.88;;
47894;SDS011;33653;52.302;8.134;2023-10-31T07:27:21;2.28;;;1.80;;
47894;SDS011;33653;52.302;8.134;2023-10-31T07:29:52;3.03;;;2.60;;
47894;SDS011;33653;52.302;8.134;2023-10-31T07:32:22;8.63;;;2.47;;
47894;SDS011;33653;52.302;8.134;2023-10-31T07:34:59;4.15;;;1.67;;
47894;SDS011;33653;52.302;8.134;2023-10-31T07:37:31;3.42;;;1.90;;
47894;SDS011;33653;52.302;8.134;2023-10-31T07:42:54;2.08;;;1.77;;
47894;SDS011;33653;52.302;8.134;2023-10-31T07:45:26;1.70;;;1.58;;
47894;SDS011;33653;52.302;8.134;2023-10-31T07:48:24;1.83;;;1.70;;
47894;SDS011;33653;52.302;8.134;2023-10-31T07:50:53;2.35;;;1.65;;
47894;SDS011;33653;52.302;8.134;2023-10-31T07:53:39;6.07;;;1.75;;
47894;SDS011;33653;52.302;8.134;2023-10-31T07:56:15;1.95;;;1.75;;
47894;SDS011;33653;52.302;8.134;2023-10-31T07:59:07;2.53;;;1.70;;
47894;SDS011;33653;52.302;8.134;2023-10-31T08:01:59;2.67;;;1.85;;
47894;SDS011;33653;52.302;8.134;2023-10-31T08:04:27;2.28;;;1.77;;
47894;SDS011;33653;52.302;8.134;2023-10-31T08:06:57;2.25;;;1.75;;
47894;SDS011;33653;52.302;8.134;2023-10-31T08:09:31;2.47;;;2.13;;
47894;SDS011;33653;52.302;8.134;2023-10-31T08:12:02;1.05;;;1.00;;
47894;SDS011;33653;52.302;8.134;2023-10-31T08:14:36;1.50;;;1.40;;
47894;SDS011;33653;52.302;8.134;2023-10-31T08:17:06;3.47;;;1.38;;
47894;SDS011;33653;52.302;8.134;2023-10-31T08:19:47;2.05;;;1.50;;
47894;SDS011;33653;52.302;8.134;2023-10-31T08:22:18;1.65;;;1.30;;
47894;SDS011;33653;52.302;8.134;2023-10-31T08:24:46;2.80;;;1.65;;
47894;SDS011;33653;52.302;8.134;2023-10-31T08:27:15;2.28;;;1.42;;
47894;SDS011;33653;52.302;8.134;2023-10-31T08:29:43;1.58;;;1.35;;
47894;SDS011;33653;52.302;8.134;2023-10-31T08:32:11;1.75;;;1.63;;
47894;SDS011;33653;52.302;8.134;2023-10-31T08:34:40;3.13;;;2.15;;
47894;SDS011;33653;52.302;8.134;2023-10-31T08:37:08;2.20;;;1.70;;
47894;SDS011;33653;52.302;8.134;2023-10-31T08:39:36;1.65;;;1.40;;
47894;SDS011;33653;52.302;8.134;2023-10-31T08:42:05;3.88;;;1.60;;
47894;SDS011;33653;52.302;8.134;2023-10-31T08:44:33;2.10;;;1.67;;
47894;SDS011;33653;52.302;8.134;2023-10-31T08:47:05;1.80;;;1.70;;
47894;SDS011;33653;52.302;8.134;2023-10-31T08:49:34;1.42;;;1.00;;
47894;SDS011;33653;52.302;8.134;2023-10-31T08:52:03;1.00;;;1.00;;
47894;SDS011;33653;52.302;8.134;2023-10-31T08:54:31;1.40;;;1.10;;
47894;SDS011;33653;52.302;8.134;2023-10-31T08:57:00;1.40;;;1.30;;
47894;SDS011;33653;52.302;8.134;2023-10-31T08:59:28;1.27;;;1.13;;
47894;SDS011;33653;52.302;8.134;2023-10-31T09:01:56;2.58;;;1.15;;
47894;SDS011;33653;52.302;8.134;2023-10-31T09:04:25;2.50;;;1.40;;
47894;SDS011;33653;52.302;8.134;2023-10-31T09:06:53;1.27;;;1.15;;
47894;SDS011;33653;52.302;8.134;2023-10-31T09:09:22;1.40;;;1.27;;
47894;SDS011;33653;52.302;8.134;2023-10-31T09:11:50;1.27;;;1.10;;
47894;SDS011;33653;52.302;8.134;2023-10-31T09:14:19;1.58;;;1.23;;
47894;SDS011;33653;52.302;8.134;2023-10-31T09:16:47;1.50;;;1.10;;
47894;SDS011;33653;52.302;8.134;2023-10-31T09:19:16;1.00;;;1.00;;
47894;SDS011;33653;52.302;8.134;2023-10-31T09:21:45;1.40;;;1.27;;
47894;SDS011;33653;52.302;8.134;2023-10-31T09:24:13;2.58;;;1.00;;
47894;SDS011;33653;52.302;8.134;2023-10-31T09:26:42;1.20;;;1.10;;
47894;SDS011;33653;52.302;8.134;2023-10-31T09:29:10;1.42;;;1.17;;
47894;SDS011;33653;52.302;8.134;2023-10-31T09:31:54;9.13;;;2.83;;
47894;SDS011;33653;52.302;8.134;2023-10-31T09:34:22;2.90;;;1.90;;
47894;SDS011;33653;52.302;8.134;2023-10-31T09:36:51;1.80;;;1.52;;
47894;SDS011;33653;52.302;8.134;2023-10-31T09:39:20;2.50;;;1.75;;
47894;SDS011;33653;52.302;8.134;2023-10-31T09:41:50;2.17;;;1.33;;
47894;SDS011;33653;52.302;8.134;2023-10-31T09:44:21;1.80;;;1.58;;
47894;SDS011;33653;52.302;8.134;2023-10-31T09:46:51;1.38;;;1.25;;
47894;SDS011;33653;52.302;8.134;2023-10-31T09:49:20;1.65;;;1.30;;
47894;SDS011;33653;52.302;8.134;2023-10-31T09:51:49;5.47;;;1.45;;
47894;SDS011;33653;52.302;8.134;2023-10-31T09:54:18;1.52;;;1.25;;
47894;SDS011;33653;52.302;8.134;2023-10-31T09:56:47;1.73;;;1.60;;
47894;SDS011;33653;52.302;8.134;2023-10-31T09:59:18;2.55;;;1.80;;
47894;SDS011;33653;52.302;8.134;2023-10-31T10:01:58;1.67;;;1.50;;
47894;SDS011;33653;52.302;8.134;2023-10-31T10:04:26;1.83;;;1.67;;
47894;SDS011;33653;52.302;8.134;2023-10-31T10:09:48;3.33;;;1.73;;
47894;SDS011;33653;52.302;8.134;2023-10-31T10:12:17;2.22;;;1.50;;
47894;SDS011;33653;52.302;8.134;2023-10-31T10:14:49;4.68;;;1.58;;
47894;SDS011;33653;52.302;8.134;2023-10-31T10:17:24;4.43;;;1.95;;
47894;SDS011;33653;52.302;8.134;2023-10-31T10:22:39;2.10;;;1.73;;
47894;SDS011;33653;52.302;8.134;2023-10-31T10:27:46;3.63;;;1.40;;
47894;SDS011;33653;52.302;8.134;2023-10-31T10:30:15;1.65;;;1.55;;
47894;SDS011;33653;52.302;8.134;2023-10-31T10:32:44;2.92;;;1.70;;
47894;SDS011;33653;52.302;8.134;2023-10-31T10:35:12;3.10;;;1.73;;
47894;SDS011;33653;52.302;8.134;2023-10-31T10:37:44;1.45;;;1.30;;
47894;SDS011;33653;52.302;8.134;2023-10-31T10:40:17;2.28;;;1.55;;
47894;SDS011;33653;52.302;8.134;2023-10-31T10:42:46;1.73;;;1.48;;
47894;SDS011;33653;52.302;8.134;2023-10-31T10:45:16;1.30;;;1.20;;
47894;SDS011;33653;52.302;8.134;2023-10-31T10:47:49;1.20;;;1.10;;
47894;SDS011;33653;52.302;8.134;2023-10-31T10:50:20;1.60;;;1.40;;
47894;SDS011;33653;52.302;8.134;2023-10-31T10:53:16;1.55;;;1.45;;
47894;SDS011;33653;52.302;8.134;2023-10-31T10:55:55;1.20;;;1.10;;
47894;SDS011;33653;52.302;8.134;2023-10-31T11:01:22;1.33;;;1.13;;
47894;SDS011;33653;52.302;8.134;2023-10-31T11:03:51;1.20;;;1.02;;
47894;SDS011;33653;52.302;8.134;2023-10-31T11:06:21;1.75;;;1.38;;
47894;SDS011;33653;52.302;8.134;2023-10-31T11:08:50;2.78;;;1.25;;
47894;SDS011;33653;52.302;8.134;2023-10-31T11:11:20;1.80;;;1.30;;
47894;SDS011;33653;52.302;8.134;2023-10-31T11:13:50;2.40;;;1.40;;
47894;SDS011;33653;52.302;8.134;2023-10-31T11:16:29;1.75;;;1.65;;
47894;SDS011;33653;52.302;8.134;2023-10-31T11:19:08;1.35;;;1.25;;
47894;SDS011;33653;52.302;8.134;2023-10-31T11:21:43;1.95;;;1.50;;
47894;SDS011;33653;52.302;8.134;2023-10-31T11:24:28;4.63;;;1.30;;
47894;SDS011;33653;52.302;8.134;2023-10-31T11:27:08;3.92;;;1.58;;
47894;SDS011;33653;52.302;8.134;2023-10-31T11:29:42;1.42;;;1.08;;
47894;SDS011;33653;52.302;8.134;2023-10-31T11:32:13;1.52;;;1.20;;
47894;SDS011;33653;52.302;8.134;2023-10-31T11:34:45;2.88;;;1.30;;
47894;SDS011;33653;52.302;8.134;2023-10-31T11:37:32;1.10;;;0.93;;
47894;SDS011;33653;52.302;8.134;2023-10-31T11:40:20;1.88;;;1.10;;
47894;SDS011;33653;52.302;8.134;2023-10-31T11:42:52;1.17;;;1.02;;
47894;SDS011;33653;52.302;8.134;2023-10-31T11:48:44;1.10;;;1.00;;
47894;SDS011;33653;52.302;8.134;2023-10-31T11:51:25;1.67;;;1.13;;
47894;SDS011;33653;52.302;8.134;2023-10-31T11:53:56;1.77;;;1.13;;
47894;SDS011;33653;52.302;8.134;2023-10-31T11:56:28;1.95;;;1.23;;
47894;SDS011;33653;52.302;8.134;2023-10-31T12:01:31;1.40;;;0.82;;
47894;SDS011;33653;52.302;8.134;2023-10-31T12:04:00;1.38;;;0.88;;
47894;SDS011;33653;52.302;8.134;2023-10-31T12:06:31;2.90;;;0.88;;
47894;SDS011;33653;52.302;8.134;2023-10-31T12:09:02;6.50;;;1.02;;
47894;SDS011;33653;52.302;8.134;2023-10-31T12:11:30;1.45;;;1.17;;
47894;SDS011;33653;52.302;8.134;2023-10-31T12:13:59;0.68;;;0.68;;
47894;SDS011;33653;52.302;8.134;2023-10-31T12:16:32;0.80;;;0.80;;
47894;SDS011;33653;52.302;8.134;2023-10-31T12:19:02;1.60;;;1.00;;
47894;SDS011;33653;52.302;8.134;2023-10-31T12:24:11;1.52;;;0.90;;
47894;SDS011;33653;52.302;8.134;2023-10-31T12:26:41;1.45;;;1.10;;
47894;SDS011;33653;52.302;8.134;2023-10-31T12:29:13;0.93;;;0.70;;
47894;SDS011;33653;52.302;8.134;2023-10-31T12:32:02;1.13;;;1.02;;
47894;SDS011;33653;52.302;8.134;2023-10-31T12:34:34;1.20;;;0.65;;
47894;SDS011;33653;52.302;8.134;2023-10-31T12:37:02;1.58;;;0.85;;
47894;SDS011;33653;52.302;8.134;2023-10-31T12:39:30;0.70;;;0.70;;
47894;SDS011;33653;52.302;8.134;2023-10-31T12:41:59;0.80;;;0.80;;
47894;SDS011;33653;52.302;8.134;2023-10-31T12:44:29;2.42;;;1.42;;
47894;SDS011;33653;52.302;8.134;2023-10-31T12:47:01;2.13;;;1.08;;
47894;SDS011;33653;52.302;8.134;2023-10-31T12:49:31;3.70;;;1.38;;
47894;SDS011;33653;52.302;8.134;2023-10-31T12:52:02;3.75;;;1.48;;
47894;SDS011;33653;52.302;8.134;2023-10-31T12:54:35;3.03;;;1.50;;
47894;SDS011;33653;52.302;8.134;2023-10-31T12:57:08;1.20;;;0.98;;
47894;SDS011;33653;52.302;8.134;2023-10-31T12:59:37;2.97;;;1.40;;
47894;SDS011;33653;52.302;8.134;2023-10-31T13:02:06;1.58;;;0.90;;
47894;SDS011;33653;52.302;8.134;2023-10-31T13:04:36;1.85;;;1.08;;
47894;SDS011;33653;52.302;8.134;2023-10-31T13:07:10;1.38;;;0.98;;
47894;SDS011;33653;52.302;8.134;2023-10-31T13:09:39;1.13;;;1.02;;
47894;SDS011;33653;52.302;8.134;2023-10-31T13:12:12;3.25;;;1.10;;
47894;SDS011;33653;52.302;8.134;2023-10-31T13:14:42;2.03;;;1.00;;
47894;SDS011;33653;52.302;8.134;2023-10-31T13:17:10;1.60;;;1.00;;
47894;SDS011;33653;52.302;8.134;2023-10-31T13:19:39;3.38;;;0.82;;
47894;SDS011;33653;52.302;8.134;2023-10-31T13:22:13;1.92;;;0.90;;
47894;SDS011;33653;52.302;8.134;2023-10-31T13:24:41;1.15;;;0.93;;
47894;SDS011;33653;52.302;8.134;2023-10-31T13:27:09;1.58;;;0.88;;
47894;SDS011;33653;52.302;8.134;2023-10-31T13:29:42;1.60;;;1.05;;
47894;SDS011;33653;52.302;8.134;2023-10-31T13:32:12;1.95;;;0.63;;
47894;SDS011;33653;52.302;8.134;2023-10-31T13:34:41;1.88;;;0.90;;
47894;SDS011;33653;52.302;8.134;2023-10-31T13:37:09;0.93;;;0.85;;
47894;SDS011;33653;52.302;8.134;2023-10-31T13:39:38;2.00;;;1.05;;
47894;SDS011;33653;52.302;8.134;2023-10-31T13:42:06;1.30;;;0.98;;
47894;SDS011;33653;52.302;8.134;2023-10-31T13:44:36;1.60;;;0.90;;
47894;SDS011;33653;52.302;8.134;2023-10-31T13:47:05;0.57;;;0.57;;
47894;SDS011;33653;52.302;8.134;2023-10-31T13:49:33;0.50;;;0.50;;
47894;SDS011;33653;52.302;8.134;2023-10-31T13:52:01;2.47;;;0.75;;
47894;SDS011;33653;52.302;8.134;2023-10-31T13:54:32;0.57;;;0.57;;
47894;SDS011;33653;52.302;8.134;2023-10-31T13:57:00;2.13;;;1.30;;
47894;SDS011;33653;52.302;8.134;2023-10-31T13:59:29;0.65;;;0.65;;
47894;SDS011;33653;52.302;8.134;2023-10-31T14:01:58;0.73;;;0.68;;
47894;SDS011;33653;52.302;8.134;2023-10-31T14:04:30;1.08;;;0.88;;
47894;SDS011;33653;52.302;8.134;2023-10-31T14:06:59;0.82;;;0.70;;
47894;SDS011;33653;52.302;8.134;2023-10-31T14:09:28;0.50;;;0.50;;
47894;SDS011;33653;52.302;8.134;2023-10-31T14:11:57;0.65;;;0.65;;
47894;SDS011;33653;52.302;8.134;2023-10-31T14:14:27;0.98;;;0.70;;
47894;SDS011;33653;52.302;8.134;2023-10-31T14:16:55;0.77;;;0.70;;
47894;SDS011;33653;52.302;8.134;2023-10-31T14:19:24;0.95;;;0.70;;
47894;SDS011;33653;52.302;8.134;2023-10-31T14:21:56;0.85;;;0.60;;
47894;SDS011;33653;52.302;8.134;2023-10-31T14:24:24;0.73;;;0.70;;
47894;SDS011;33653;52.302;8.134;2023-10-31T14:26:56;0.82;;;0.60;;
47894;SDS011;33653;52.302;8.134;2023-10-31T14:29:29;0.93;;;0.63;;
47894;SDS011;33653;52.302;8.134;2023-10-31T14:32:09;2.13;;;0.70;;
47894;SDS011;33653;52.302;8.134;2023-10-31T14:34:37;0.80;;;0.80;;
47894;SDS011;33653;52.302;8.134;2023-10-31T14:37:05;0.70;;;0.70;;
47894;SDS011;33653;52.302;8.134;2023-10-31T14:39:35;0.85;;;0.75;;
47894;SDS011;33653;52.302;8.134;2023-10-31T14:42:11;0.68;;;0.68;;
47894;SDS011;33653;52.302;8.134;2023-10-31T14:44:42;0.80;;;0.80;;
47894;SDS011;33653;52.302;8.134;2023-10-31T14:47:10;1.10;;;0.57;;
47894;SDS011;33653;52.302;8.134;2023-10-31T14:52:10;1.10;;;0.60;;
47894;SDS011;33653;52.302;8.134;2023-10-31T14:54:38;0.50;;;0.50;;
47894;SDS011;33653;52.302;8.134;2023-10-31T14:57:08;3.20;;;0.85;;
47894;SDS011;33653;52.302;8.134;2023-10-31T14:59:50;2.75;;;0.70;;
47894;SDS011;33653;52.302;8.134;2023-10-31T15:02:18;0.95;;;0.85;;
47894;SDS011;33653;52.302;8.134;2023-10-31T15:04:47;1.95;;;1.02;;
47894;SDS011;33653;52.302;8.134;2023-10-31T15:07:15;1.33;;;0.98;;
47894;SDS011;33653;52.302;8.134;2023-10-31T15:09:43;4.10;;;2.78;;
47894;SDS011;33653;52.302;8.134;2023-10-31T15:12:15;5.30;;;3.45;;
47894;SDS011;33653;52.302;8.134;2023-10-31T15:17:52;11.13;;;4.63;;
47894;SDS011;33653;52.302;8.134;2023-10-31T15:20:20;7.60;;;4.03;;
47894;SDS011;33653;52.302;8.134;2023-10-31T15:22:50;7.68;;;4.10;;
47894;SDS011;33653;52.302;8.134;2023-10-31T15:25:18;7.95;;;5.25;;
47894;SDS011;33653;52.302;8.134;2023-10-31T15:27:51;11.45;;;5.28;;
47894;SDS011;33653;52.302;8.134;2023-10-31T15:30:21;7.13;;;4.50;;
47894;SDS011;33653;52.302;8.134;2023-10-31T15:32:50;6.32;;;4.38;;
47894;SDS011;33653;52.302;8.134;2023-10-31T15:35:18;6.43;;;3.97;;
47894;SDS011;33653;52.302;8.134;2023-10-31T15:37:49;7.95;;;4.53;;
47894;SDS011;33653;52.302;8.134;2023-10-31T15:40:18;5.78;;;4.55;;
47894;SDS011;33653;52.302;8.134;2023-10-31T15:45:17;8.55;;;4.05;;
47894;SDS011;33653;52.302;8.134;2023-10-31T15:47:46;8.10;;;4.70;;
47894;SDS011;33653;52.302;8.134;2023-10-31T15:50:14;8.75;;;4.88;;
47894;SDS011;33653;52.302;8.134;2023-10-31T15:52:46;9.90;;;5.07;;
47894;SDS011;33653;52.302;8.134;2023-10-31T15:55:16;8.13;;;5.15;;
47894;SDS011;33653;52.302;8.134;2023-10-31T15:57:51;7.28;;;4.80;;
47894;SDS011;33653;52.302;8.134;2023-10-31T16:02:52;9.00;;;4.85;;
47894;SDS011;33653;52.302;8.134;2023-10-31T16:05:20;8.32;;;4.28;;
47894;SDS011;33653;52.302;8.134;2023-10-31T16:07:50;8.50;;;4.28;;
47894;SDS011;33653;52.302;8.134;2023-10-31T16:10:18;7.30;;;4.20;;
47894;SDS011;33653;52.302;8.134;2023-10-31T16:12:47;9.40;;;4.30;;
47894;SDS011;33653;52.302;8.134;2023-10-31T16:15:15;5.55;;;3.97;;
47894;SDS011;33653;52.302;8.134;2023-10-31T16:17:45;7.25;;;4.18;;
47894;SDS011;33653;52.302;8.134;2023-10-31T16:20:13;6.18;;;3.80;;
47894;SDS011;33653;52.302;8.134;2023-10-31T16:22:42;6.43;;;3.75;;
47894;SDS011;33653;52.302;8.134;2023-10-31T16:25:10;5.25;;;3.53;;
47894;SDS011;33653;52.302;8.134;2023-10-31T16:27:39;4.75;;;2.35;;
47894;SDS011;33653;52.302;8.134;2023-10-31T16:30:08;4.50;;;2.97;;
47894;SDS011;33653;52.302;8.134;2023-10-31T16:32:38;3.88;;;2.25;;
47894;SDS011;33653;52.302;8.134;2023-10-31T16:35:06;3.22;;;2.47;;
47894;SDS011;33653;52.302;8.134;2023-10-31T16:37:35;7.20;;;2.15;;
47894;SDS011;33653;52.302;8.134;2023-10-31T16:40:04;3.90;;;2.00;;
47894;SDS011;33653;52.302;8.134;2023-10-31T16:42:33;2.45;;;1.77;;
47894;SDS011;33653;52.302;8.134;2023-10-31T16:45:01;2.45;;;1.33;;
47894;SDS011;33653;52.302;8.134;2023-10-31T16:47:33;4.88;;;1.77;;
47894;SDS011;33653;52.302;8.134;2023-10-31T16:50:01;1.38;;;1.27;;